sensor_id;sensor_type;location;lat;lon;timestamp;pressure;altitude;pressure_sealevel;temperature;humidity
7168;BME280;3625;51.762;14.320;2023-05-22T00:01:48;100833.56;;;17.79;62.97
7168;BME280;3625;51.762;14.320;2023-05-22T00:04:18;100775.09;;;17.49;63.53
7168;BME280;3625;51.762;14.320;2023-05-22T00:06:48;100813.38;;;17.71;63.18
7168;BME280;3625;51.762;14.320;2023-05-22T00:09:16;100824.66;;;17.78;63.71
7168;BME280;3625;51.762;14.320;2023-05-22T00:11:45;100796.44;;;17.51;63.75
7168;BME280;3625;51.762;14.320;2023-05-22T00:14:13;100802.31;;;17.59;64.67
7168;BME280;3625;51.762;14.320;2023-05-22T00:16:43;100811.75;;;17.67;64.60
7168;BME280;3625;51.762;14.320;2023-05-22T00:19:12;100819.00;;;17.65;64.62
7168;BME280;3625;51.762;14.320;2023-05-22T00:21:43;100807.78;;;17.56;65.38
7168;BME280;3625;51.762;14.320;2023-05-22T00:24:13;100810.34;;;17.59;65.51
7168;BME280;3625;51.762;14.320;2023-05-22T00:26:41;100815.19;;;17.51;65.81
7168;BME280;3625;51.762;14.320;2023-05-22T00:29:10;100818.31;;;17.40;66.58
7168;BME280;3625;51.762;14.320;2023-05-22T00:31:38;100817.09;;;17.28;67.00
7168;BME280;3625;51.762;14.320;2023-05-22T00:34:08;100807.56;;;17.21;67.47
7168;BME280;3625;51.762;14.320;2023-05-22T00:36:37;100693.97;;;16.50;68.08
7168;BME280;3625;51.762;14.320;2023-05-22T00:39:05;100802.72;;;17.11;68.32
7168;BME280;3625;51.762;14.320;2023-05-22T00:41:33;100809.00;;;17.10;68.63
7168;BME280;3625;51.762;14.320;2023-05-22T00:44:02;100778.84;;;16.86;68.77
7168;BME280;3625;51.762;14.320;2023-05-22T00:46:32;100805.41;;;16.89;69.72
7168;BME280;3625;51.762;14.320;2023-05-22T00:49:00;100805.63;;;16.84;70.41
7168;BME280;3625;51.762;14.320;2023-05-22T00:51:30;100609.22;;;15.71;70.57
7168;BME280;3625;51.762;14.320;2023-05-22T00:53:59;100803.19;;;16.78;70.80
7168;BME280;3625;51.762;14.320;2023-05-22T00:56:28;100796.97;;;16.78;70.77
7168;BME280;3625;51.762;14.320;2023-05-22T00:58:58;100798.25;;;16.69;71.23
7168;BME280;3625;51.762;14.320;2023-05-22T01:01:27;100692.06;;;16.10;71.80
7168;BME280;3625;51.762;14.320;2023-05-22T01:04:00;100763.91;;;16.38;71.98
7168;BME280;3625;51.762;14.320;2023-05-22T01:06:32;100765.75;;;16.36;72.09
7168;BME280;3625;51.762;14.320;2023-05-22T01:09:01;100797.38;;;16.47;72.92
7168;BME280;3625;51.762;14.320;2023-05-22T01:11:37;100771.34;;;16.30;73.16
7168;BME280;3625;51.762;14.320;2023-05-22T01:14:20;100774.28;;;16.24;74.45
7168;BME280;3625;51.762;14.320;2023-05-22T01:16:58;100760.81;;;16.05;74.08
7168;BME280;3625;51.762;14.320;2023-05-22T01:20:00;100798.16;;;16.27;75.69
7168;BME280;3625;51.762;14.320;2023-05-22T01:23:23;100762.72;;;16.02;75.00
7168;BME280;3625;51.762;14.320;2023-05-22T01:26:23;100791.75;;;16.09;75.23
7168;BME280;3625;51.762;14.320;2023-05-22T01:29:14;100797.25;;;16.06;75.64
7168;BME280;3625;51.762;14.320;2023-05-22T01:31:53;100760.19;;;15.75;76.05
7168;BME280;3625;51.762;14.320;2023-05-22T01:34:24;100793.00;;;16.01;77.11
7168;BME280;3625;51.762;14.320;2023-05-22T01:36:55;100787.84;;;15.96;77.64
7168;BME280;3625;51.762;14.320;2023-05-22T01:39:26;100787.91;;;15.95;77.16
7168;BME280;3625;51.762;14.320;2023-05-22T01:41:56;100759.22;;;15.78;77.91
7168;BME280;3625;51.762;14.320;2023-05-22T01:44:25;100783.50;;;15.94;78.04
7168;BME280;3625;51.762;14.320;2023-05-22T01:46:56;100781.13;;;15.86;78.04
7168;BME280;3625;51.762;14.320;2023-05-22T01:49:26;100783.91;;;15.83;78.71
7168;BME280;3625;51.762;14.320;2023-05-22T01:52:09;100786.66;;;15.81;78.89
7168;BME280;3625;51.762;14.320;2023-05-22T01:54:45;100799.84;;;15.84;79.81
7168;BME280;3625;51.762;14.320;2023-05-22T01:57:22;100796.16;;;15.89;79.49
7168;BME280;3625;51.762;14.320;2023-05-22T02:00:02;100797.44;;;15.78;79.38
7168;BME280;3625;51.762;14.320;2023-05-22T02:02:59;100787.34;;;15.87;79.33
7168;BME280;3625;51.762;14.320;2023-05-22T02:05:36;100783.34;;;15.75;78.97
7168;BME280;3625;51.762;14.320;2023-05-22T02:08:06;100790.59;;;15.71;80.72
7168;BME280;3625;51.762;14.320;2023-05-22T02:10:41;100782.03;;;15.63;81.00
7168;BME280;3625;51.762;14.320;2023-05-22T02:13:10;100669.22;;;14.90;80.89
7168;BME280;3625;51.762;14.320;2023-05-22T02:15:39;100787.09;;;15.46;81.66
7168;BME280;3625;51.762;14.320;2023-05-22T02:18:10;100782.09;;;15.37;82.66
7168;BME280;3625;51.762;14.320;2023-05-22T02:20:41;100780.09;;;15.42;83.60
7168;BME280;3625;51.762;14.320;2023-05-22T02:23:10;100773.75;;;15.46;83.47
7168;BME280;3625;51.762;14.320;2023-05-22T02:25:38;100779.28;;;15.40;84.30
7168;BME280;3625;51.762;14.320;2023-05-22T02:28:07;100778.59;;;15.35;84.02
7168;BME280;3625;51.762;14.320;2023-05-22T02:30:35;100778.78;;;15.30;84.64
7168;BME280;3625;51.762;14.320;2023-05-22T02:33:04;100739.94;;;14.98;85.03
7168;BME280;3625;51.762;14.320;2023-05-22T02:35:34;100776.81;;;15.10;86.89
7168;BME280;3625;51.762;14.320;2023-05-22T02:38:03;100776.09;;;15.05;87.00
7168;BME280;3625;51.762;14.320;2023-05-22T02:40:33;100755.34;;;14.90;87.39
7168;BME280;3625;51.762;14.320;2023-05-22T02:43:01;100775.63;;;14.94;88.27
7168;BME280;3625;51.762;14.320;2023-05-22T02:45:31;100771.19;;;14.95;89.86
7168;BME280;3625;51.762;14.320;2023-05-22T02:48:00;100775.50;;;14.97;90.39
7168;BME280;3625;51.762;14.320;2023-05-22T02:50:30;100772.91;;;14.96;89.70
7168;BME280;3625;51.762;14.320;2023-05-22T02:53:00;100773.88;;;14.93;90.65
7168;BME280;3625;51.762;14.320;2023-05-22T02:55:29;100558.28;;;13.65;90.42
7168;BME280;3625;51.762;14.320;2023-05-22T02:57:58;100779.59;;;14.83;91.61
7168;BME280;3625;51.762;14.320;2023-05-22T03:00:26;100774.16;;;14.86;92.52
7168;BME280;3625;51.762;14.320;2023-05-22T03:02:55;100762.72;;;14.82;92.28
7168;BME280;3625;51.762;14.320;2023-05-22T03:05:24;100774.34;;;14.80;93.17
7168;BME280;3625;51.762;14.320;2023-05-22T03:07:52;100775.53;;;14.71;92.99
7168;BME280;3625;51.762;14.320;2023-05-22T03:10:22;100776.72;;;14.62;92.68
7168;BME280;3625;51.762;14.320;2023-05-22T03:12:51;100776.72;;;14.62;94.86
7168;BME280;3625;51.762;14.320;2023-05-22T03:15:20;100766.44;;;14.52;94.30
7168;BME280;3625;51.762;14.320;2023-05-22T03:17:52;100774.34;;;14.53;95.03
7168;BME280;3625;51.762;14.320;2023-05-22T03:20:21;100772.78;;;14.48;94.72
7168;BME280;3625;51.762;14.320;2023-05-22T03:22:49;100771.88;;;14.49;96.64
7168;BME280;3625;51.762;14.320;2023-05-22T03:25:18;100766.44;;;14.52;96.39
7168;BME280;3625;51.762;14.320;2023-05-22T03:27:49;100768.25;;;14.51;96.24
7168;BME280;3625;51.762;14.320;2023-05-22T03:30:21;100761.88;;;14.55;97.31
7168;BME280;3625;51.762;14.320;2023-05-22T03:33:04;100754.66;;;14.59;97.16
7168;BME280;3625;51.762;14.320;2023-05-22T03:35:32;100756.38;;;14.61;97.11
7168;BME280;3625;51.762;14.320;2023-05-22T03:38:05;100766.16;;;14.61;97.12
7168;BME280;3625;51.762;14.320;2023-05-22T03:40:34;100760.59;;;14.67;97.49
7168;BME280;3625;51.762;14.320;2023-05-22T03:43:04;100764.09;;;14.69;97.12
7168;BME280;3625;51.762;14.320;2023-05-22T03:45:33;100760.50;;;14.70;96.96
7168;BME280;3625;51.762;14.320;2023-05-22T03:48:03;100758.63;;;14.72;97.33
7168;BME280;3625;51.762;14.320;2023-05-22T03:50:32;100757.84;;;14.70;97.04
7168;BME280;3625;51.762;14.320;2023-05-22T03:53:00;100764.97;;;14.69;97.32
7168;BME280;3625;51.762;14.320;2023-05-22T03:55:30;100769.28;;;14.72;97.29
7168;BME280;3625;51.762;14.320;2023-05-22T03:57:58;100767.50;;;14.72;97.25
7168;BME280;3625;51.762;14.320;2023-05-22T04:00:28;100757.84;;;14.70;96.77
7168;BME280;3625;51.762;14.320;2023-05-22T04:02:57;100682.03;;;14.27;97.43
7168;BME280;3625;51.762;14.320;2023-05-22T04:05:26;100770.81;;;14.79;96.80
7168;BME280;3625;51.762;14.320;2023-05-22T04:07:56;100758.50;;;14.77;96.91
7168;BME280;3625;51.762;14.320;2023-05-22T04:10:25;100764.47;;;14.83;96.27
7168;BME280;3625;51.762;14.320;2023-05-22T04:12:53;100766.00;;;14.90;97.02
7168;BME280;3625;51.762;14.320;2023-05-22T04:15:22;100771.91;;;14.98;96.21
7168;BME280;3625;51.762;14.320;2023-05-22T04:17:52;100762.03;;;15.02;96.21
7168;BME280;3625;51.762;14.320;2023-05-22T04:20:21;100776.09;;;15.05;96.45
7168;BME280;3625;51.762;14.320;2023-05-22T04:22:50;100761.72;;;15.11;95.75
7168;BME280;3625;51.762;14.320;2023-05-22T04:25:18;100765.06;;;15.16;95.77
7168;BME280;3625;51.762;14.320;2023-05-22T04:27:47;100763.03;;;15.23;95.11
7168;BME280;3625;51.762;14.320;2023-05-22T04:30:16;100760.22;;;15.27;94.89
7168;BME280;3625;51.762;14.320;2023-05-22T04:32:45;100757.28;;;15.35;94.48
7168;BME280;3625;51.762;14.320;2023-05-22T04:35:15;100749.28;;;15.35;94.44
7168;BME280;3625;51.762;14.320;2023-05-22T04:37:47;100764.75;;;15.48;94.07
7168;BME280;3625;51.762;14.320;2023-05-22T04:40:17;100767.25;;;15.53;93.64
7168;BME280;3625;51.762;14.320;2023-05-22T04:42:46;100769.75;;;15.58;93.80
7168;BME280;3625;51.762;14.320;2023-05-22T04:45:14;100765.09;;;15.64;93.48
7168;BME280;3625;51.762;14.320;2023-05-22T04:47:45;100767.47;;;15.72;93.31
7168;BME280;3625;51.762;14.320;2023-05-22T04:50:15;100767.91;;;15.83;91.90
7168;BME280;3625;51.762;14.320;2023-05-22T04:52:43;100764.97;;;15.91;91.65
7168;BME280;3625;51.762;14.320;2023-05-22T04:55:14;100755.47;;;16.05;91.01
7168;BME280;3625;51.762;14.320;2023-05-22T04:57:42;100762.03;;;16.18;90.32
7168;BME280;3625;51.762;14.320;2023-05-22T05:00:13;100759.91;;;16.27;89.27
7168;BME280;3625;51.762;14.320;2023-05-22T05:02:44;100763.22;;;16.33;89.22
7168;BME280;3625;51.762;14.320;2023-05-22T05:05:14;100768.38;;;16.38;88.72
7168;BME280;3625;51.762;14.320;2023-05-22T05:07:43;100770.00;;;16.42;88.45
7168;BME280;3625;51.762;14.320;2023-05-22T05:10:15;100773.16;;;16.51;89.09
7168;BME280;3625;51.762;14.320;2023-05-22T05:12:44;100760.66;;;16.52;88.23
7168;BME280;3625;51.762;14.320;2023-05-22T05:15:13;100774.63;;;16.80;87.45
7168;BME280;3625;51.762;14.320;2023-05-22T05:17:41;100772.97;;;16.98;86.85
7168;BME280;3625;51.762;14.320;2023-05-22T05:20:11;100776.44;;;17.00;84.64
7168;BME280;3625;51.762;14.320;2023-05-22T05:22:42;100780.81;;;17.21;84.87
7168;BME280;3625;51.762;14.320;2023-05-22T05:25:13;100777.84;;;17.48;84.18
7168;BME280;3625;51.762;14.320;2023-05-22T05:27:42;100779.34;;;17.73;83.43
7168;BME280;3625;51.762;14.320;2023-05-22T05:30:11;100778.94;;;18.01;83.35
7168;BME280;3625;51.762;14.320;2023-05-22T05:33:15;100775.88;;;18.28;80.58
7168;BME280;3625;51.762;14.320;2023-05-22T05:36:07;100781.06;;;18.50;79.60
7168;BME280;3625;51.762;14.320;2023-05-22T05:38:40;100781.59;;;18.56;77.35
7168;BME280;3625;51.762;14.320;2023-05-22T05:41:08;100783.81;;;18.48;75.54
7168;BME280;3625;51.762;14.320;2023-05-22T05:43:37;100766.03;;;18.28;75.27
7168;BME280;3625;51.762;14.320;2023-05-22T05:46:08;100781.56;;;18.39;76.08
7168;BME280;3625;51.762;14.320;2023-05-22T05:48:36;100776.44;;;18.34;76.52
7168;BME280;3625;51.762;14.320;2023-05-22T05:51:05;100779.97;;;18.35;76.70
7168;BME280;3625;51.762;14.320;2023-05-22T05:53:39;100779.44;;;18.45;77.10
7168;BME280;3625;51.762;14.320;2023-05-22T05:56:09;100771.09;;;18.52;76.86
7168;BME280;3625;51.762;14.320;2023-05-22T05:58:41;100765.59;;;18.55;76.89
7168;BME280;3625;51.762;14.320;2023-05-22T06:01:45;100770.00;;;18.56;76.38
7168;BME280;3625;51.762;14.320;2023-05-22T06:04:21;100777.78;;;18.62;76.46
7168;BME280;3625;51.762;14.320;2023-05-22T06:06:51;100772.47;;;18.60;76.34
7168;BME280;3625;51.762;14.320;2023-05-22T06:09:47;100765.41;;;18.59;76.11
7168;BME280;3625;51.762;14.320;2023-05-22T06:12:21;100768.16;;;18.58;76.88
7168;BME280;3625;51.762;14.320;2023-05-22T06:14:49;100764.16;;;18.66;77.21
7168;BME280;3625;51.762;14.320;2023-05-22T06:17:20;100768.41;;;18.70;75.81
7168;BME280;3625;51.762;14.320;2023-05-22T06:19:49;100768.13;;;18.76;76.71
7168;BME280;3625;51.762;14.320;2023-05-22T06:22:18;100768.41;;;18.88;76.66
7168;BME280;3625;51.762;14.320;2023-05-22T06:24:51;100764.31;;;18.98;76.26
7168;BME280;3625;51.762;14.320;2023-05-22T06:27:23;100764.53;;;19.10;75.99
7168;BME280;3625;51.762;14.320;2023-05-22T06:29:54;100766.03;;;19.16;75.07
7168;BME280;3625;51.762;14.320;2023-05-22T06:32:27;100764.66;;;19.25;75.22
7168;BME280;3625;51.762;14.320;2023-05-22T06:34:56;100775.06;;;19.31;73.54
7168;BME280;3625;51.762;14.320;2023-05-22T06:37:27;100769.16;;;19.24;73.54
7168;BME280;3625;51.762;14.320;2023-05-22T06:40:05;100748.00;;;19.02;73.54
7168;BME280;3625;51.762;14.320;2023-05-22T06:42:42;100767.75;;;19.17;73.86
7168;BME280;3625;51.762;14.320;2023-05-22T06:45:29;100692.53;;;18.85;73.75
7168;BME280;3625;51.762;14.320;2023-05-22T06:48:18;100756.19;;;19.49;71.63
7168;BME280;3625;51.762;14.320;2023-05-22T06:51:22;100771.75;;;19.76;71.73
7168;BME280;3625;51.762;14.320;2023-05-22T06:53:57;100775.75;;;19.84;70.68
7168;BME280;3625;51.762;14.320;2023-05-22T06:56:32;100779.22;;;19.86;71.72
7168;BME280;3625;51.762;14.320;2023-05-22T06:59:14;100775.41;;;19.90;72.16
7168;BME280;3625;51.762;14.320;2023-05-22T07:01:45;100773.41;;;20.10;71.23
7168;BME280;3625;51.762;14.320;2023-05-22T07:04:19;100780.44;;;20.12;69.63
7168;BME280;3625;51.762;14.320;2023-05-22T07:06:57;100774.09;;;20.29;69.23
7168;BME280;3625;51.762;14.320;2023-05-22T07:09:27;100700.38;;;20.03;67.52
7168;BME280;3625;51.762;14.320;2023-05-22T07:11:57;100770.47;;;20.46;67.16
7168;BME280;3625;51.762;14.320;2023-05-22T07:14:25;100774.00;;;20.62;67.76
7168;BME280;3625;51.762;14.320;2023-05-22T07:16:55;100783.72;;;20.64;67.56
7168;BME280;3625;51.762;14.320;2023-05-22T07:19:28;100774.28;;;20.87;65.89
7168;BME280;3625;51.762;14.320;2023-05-22T07:22:00;100782.59;;;21.13;66.06
7168;BME280;3625;51.762;14.320;2023-05-22T07:24:31;100768.75;;;21.34;65.17
7168;BME280;3625;51.762;14.320;2023-05-22T07:27:01;100768.84;;;21.33;64.34
7168;BME280;3625;51.762;14.320;2023-05-22T07:29:32;100768.91;;;21.45;63.44
7168;BME280;3625;51.762;14.320;2023-05-22T07:32:03;100779.63;;;21.61;61.80
7168;BME280;3625;51.762;14.320;2023-05-22T07:34:31;100775.84;;;21.64;62.43
7168;BME280;3625;51.762;14.320;2023-05-22T07:37:06;100757.56;;;21.83;62.06
7168;BME280;3625;51.762;14.320;2023-05-22T07:39:36;100782.81;;;22.37;61.07
7168;BME280;3625;51.762;14.320;2023-05-22T07:42:07;100783.28;;;22.03;58.92
7168;BME280;3625;51.762;14.320;2023-05-22T07:44:43;100784.59;;;21.96;60.96
7168;BME280;3625;51.762;14.320;2023-05-22T07:47:11;100784.91;;;22.05;60.11
7168;BME280;3625;51.762;14.320;2023-05-22T07:49:40;100774.41;;;22.42;60.12
7168;BME280;3625;51.762;14.320;2023-05-22T07:52:10;100714.72;;;22.07;58.49
7168;BME280;3625;51.762;14.320;2023-05-22T07:54:39;100771.34;;;22.61;58.08
7168;BME280;3625;51.762;14.320;2023-05-22T07:57:13;100777.06;;;22.56;56.56
7168;BME280;3625;51.762;14.320;2023-05-22T07:59:43;100784.91;;;22.59;57.76
7168;BME280;3625;51.762;14.320;2023-05-22T08:02:11;100783.97;;;22.87;56.89
7168;BME280;3625;51.762;14.320;2023-05-22T08:04:40;100777.97;;;22.42;56.72
7168;BME280;3625;51.762;14.320;2023-05-22T08:07:09;100770.16;;;22.11;56.62
7168;BME280;3625;51.762;14.320;2023-05-22T08:09:38;100784.72;;;22.35;57.42
7168;BME280;3625;51.762;14.320;2023-05-22T08:12:08;100779.41;;;22.48;55.28
7168;BME280;3625;51.762;14.320;2023-05-22T08:14:38;100762.91;;;22.52;56.08
7168;BME280;3625;51.762;14.320;2023-05-22T08:17:07;100785.16;;;22.69;54.65
7168;BME280;3625;51.762;14.320;2023-05-22T08:19:35;100777.69;;;22.86;54.97
7168;BME280;3625;51.762;14.320;2023-05-22T08:22:05;100781.94;;;22.64;54.29
7168;BME280;3625;51.762;14.320;2023-05-22T08:24:33;100779.28;;;22.49;56.54
7168;BME280;3625;51.762;14.320;2023-05-22T08:27:04;100759.75;;;22.46;55.25
7168;BME280;3625;51.762;14.320;2023-05-22T08:29:32;100784.28;;;22.82;53.81
7168;BME280;3625;51.762;14.320;2023-05-22T08:32:04;100783.09;;;22.86;53.72
7168;BME280;3625;51.762;14.320;2023-05-22T08:34:33;100789.91;;;22.92;52.49
7168;BME280;3625;51.762;14.320;2023-05-22T08:37:03;100784.78;;;22.75;51.84
7168;BME280;3625;51.762;14.320;2023-05-22T08:39:31;100756.63;;;22.79;51.63
7168;BME280;3625;51.762;14.320;2023-05-22T08:42:00;100765.91;;;22.75;49.72
7168;BME280;3625;51.762;14.320;2023-05-22T08:44:30;100780.44;;;22.99;50.07
7168;BME280;3625;51.762;14.320;2023-05-22T08:47:00;100778.53;;;23.39;49.12
7168;BME280;3625;51.762;14.320;2023-05-22T08:49:32;100774.88;;;23.53;47.86
7168;BME280;3625;51.762;14.320;2023-05-22T08:52:08;100777.13;;;23.46;48.65
7168;BME280;3625;51.762;14.320;2023-05-22T08:54:40;100739.75;;;23.53;47.68
7168;BME280;3625;51.762;14.320;2023-05-22T08:57:11;100774.28;;;23.98;47.53
7168;BME280;3625;51.762;14.320;2023-05-22T08:59:40;100777.94;;;23.97;47.00
7168;BME280;3625;51.762;14.320;2023-05-22T09:02:11;100767.50;;;23.80;45.58
7168;BME280;3625;51.762;14.320;2023-05-22T09:04:41;100756.41;;;23.59;46.63
7168;BME280;3625;51.762;14.320;2023-05-22T09:07:10;100764.91;;;23.41;45.72
7168;BME280;3625;51.762;14.320;2023-05-22T09:09:41;100768.47;;;23.28;45.74
7168;BME280;3625;51.762;14.320;2023-05-22T09:12:09;100762.97;;;23.30;46.27
7168;BME280;3625;51.762;14.320;2023-05-22T09:14:39;100760.38;;;23.54;46.53
7168;BME280;3625;51.762;14.320;2023-05-22T09:17:09;100732.97;;;23.35;46.05
7168;BME280;3625;51.762;14.320;2023-05-22T09:19:44;100760.59;;;23.63;46.23
7168;BME280;3625;51.762;14.320;2023-05-22T09:22:13;100765.38;;;23.60;45.56
7168;BME280;3625;51.762;14.320;2023-05-22T09:24:44;100717.72;;;23.59;45.44
7168;BME280;3625;51.762;14.320;2023-05-22T09:27:13;100750.19;;;23.95;44.81
7168;BME280;3625;51.762;14.320;2023-05-22T09:29:48;100762.25;;;24.39;44.12
7168;BME280;3625;51.762;14.320;2023-05-22T09:32:17;100764.88;;;24.64;42.35
7168;BME280;3625;51.762;14.320;2023-05-22T09:34:48;100762.88;;;24.66;42.31
7168;BME280;3625;51.762;14.320;2023-05-22T09:37:17;100759.91;;;24.58;41.68
7168;BME280;3625;51.762;14.320;2023-05-22T09:39:54;100718.72;;;24.66;42.69
7168;BME280;3625;51.762;14.320;2023-05-22T09:42:24;100760.75;;;25.06;42.11
7168;BME280;3625;51.762;14.320;2023-05-22T09:44:52;100759.31;;;24.90;41.48
7168;BME280;3625;51.762;14.320;2023-05-22T09:47:21;100747.81;;;25.10;41.02
7168;BME280;3625;51.762;14.320;2023-05-22T09:49:51;100752.06;;;25.59;41.12
7168;BME280;3625;51.762;14.320;2023-05-22T09:52:20;100756.75;;;25.90;38.55
7168;BME280;3625;51.762;14.320;2023-05-22T09:54:53;100750.47;;;26.12;38.79
7168;BME280;3625;51.762;14.320;2023-05-22T09:57:26;100758.81;;;26.20;38.46
7168;BME280;3625;51.762;14.320;2023-05-22T09:59:58;100753.19;;;26.12;37.39
7168;BME280;3625;51.762;14.320;2023-05-22T10:02:41;100755.75;;;26.56;38.05
7168;BME280;3625;51.762;14.320;2023-05-22T10:05:13;100735.00;;;26.35;37.68
7168;BME280;3625;51.762;14.320;2023-05-22T10:07:50;100749.31;;;26.37;36.89
7168;BME280;3625;51.762;14.320;2023-05-22T10:10:23;100751.88;;;25.04;38.02
7168;BME280;3625;51.762;14.320;2023-05-22T10:12:56;100745.78;;;25.58;37.55
7168;BME280;3625;51.762;14.320;2023-05-22T10:15:25;100745.97;;;26.22;37.16
7168;BME280;3625;51.762;14.320;2023-05-22T10:17:55;100733.59;;;26.51;35.71
7168;BME280;3625;51.762;14.320;2023-05-22T10:20:28;100749.00;;;26.83;34.63
7168;BME280;3625;51.762;14.320;2023-05-22T10:22:58;100739.84;;;27.46;34.95
7168;BME280;3625;51.762;14.320;2023-05-22T10:25:29;100732.94;;;28.03;34.16
7168;BME280;3625;51.762;14.320;2023-05-22T10:27:59;100670.56;;;27.31;33.61
7168;BME280;3625;51.762;14.320;2023-05-22T10:30:36;100697.03;;;28.09;33.59
7168;BME280;3625;51.762;14.320;2023-05-22T10:33:40;100727.59;;;28.41;31.47
7168;BME280;3625;51.762;14.320;2023-05-22T10:36:32;100718.06;;;27.57;32.10
7168;BME280;3625;51.762;14.320;2023-05-22T10:39:14;100724.16;;;28.39;32.70
7168;BME280;3625;51.762;14.320;2023-05-22T10:41:51;100724.75;;;28.91;31.87
7168;BME280;3625;51.762;14.320;2023-05-22T10:44:21;100722.81;;;29.40;31.30
7168;BME280;3625;51.762;14.320;2023-05-22T10:46:51;100724.59;;;29.58;31.11
7168;BME280;3625;51.762;14.320;2023-05-22T10:49:20;100688.41;;;29.66;30.47
7168;BME280;3625;51.762;14.320;2023-05-22T10:51:55;100708.09;;;29.13;29.68
7168;BME280;3625;51.762;14.320;2023-05-22T10:54:41;100702.78;;;27.45;31.48
7168;BME280;3625;51.762;14.320;2023-05-22T10:57:13;100695.59;;;27.04;31.84
7168;BME280;3625;51.762;14.320;2023-05-22T10:59:46;100690.53;;;26.99;32.13
7168;BME280;3625;51.762;14.320;2023-05-22T11:02:20;100693.59;;;27.57;31.33
7168;BME280;3625;51.762;14.320;2023-05-22T11:04:49;100682.88;;;27.35;30.56
7168;BME280;3625;51.762;14.320;2023-05-22T11:07:19;100702.44;;;26.35;32.60
7168;BME280;3625;51.762;14.320;2023-05-22T11:09:48;100701.56;;;25.80;33.62
7168;BME280;3625;51.762;14.320;2023-05-22T11:12:24;100686.72;;;26.06;33.57
7168;BME280;3625;51.762;14.320;2023-05-22T11:14:57;100698.66;;;26.04;32.84
7168;BME280;3625;51.762;14.320;2023-05-22T11:17:27;100645.03;;;25.42;33.20
7168;BME280;3625;51.762;14.320;2023-05-22T11:20:02;100679.75;;;25.70;33.17
7168;BME280;3625;51.762;14.320;2023-05-22T11:22:36;100690.97;;;25.54;33.36
7168;BME280;3625;51.762;14.320;2023-05-22T11:25:09;100694.69;;;25.42;33.04
7168;BME280;3625;51.762;14.320;2023-05-22T11:27:40;100693.94;;;25.63;33.25
7168;BME280;3625;51.762;14.320;2023-05-22T11:30:10;100695.16;;;25.92;32.73
7168;BME280;3625;51.762;14.320;2023-05-22T11:32:42;100686.25;;;26.01;33.38
7168;BME280;3625;51.762;14.320;2023-05-22T11:35:14;100685.25;;;26.02;32.88
7168;BME280;3625;51.762;14.320;2023-05-22T11:37:45;100683.34;;;25.71;32.30
7168;BME280;3625;51.762;14.320;2023-05-22T11:40:16;100689.63;;;25.49;32.44
7168;BME280;3625;51.762;14.320;2023-05-22T11:42:45;100684.94;;;25.51;32.69
7168;BME280;3625;51.762;14.320;2023-05-22T11:45:14;100679.41;;;25.75;33.29
7168;BME280;3625;51.762;14.320;2023-05-22T11:47:44;100677.63;;;25.96;32.49
7168;BME280;3625;51.762;14.320;2023-05-22T11:50:13;100650.69;;;25.50;33.10
7168;BME280;3625;51.762;14.320;2023-05-22T11:52:57;100669.03;;;25.80;32.21
7168;BME280;3625;51.762;14.320;2023-05-22T11:55:25;100671.00;;;25.89;32.49
7168;BME280;3625;51.762;14.320;2023-05-22T11:57:54;100669.28;;;25.54;32.20
7168;BME280;3625;51.762;14.320;2023-05-22T12:00:23;100669.19;;;25.67;31.94
7168;BME280;3625;51.762;14.320;2023-05-22T12:02:53;100666.97;;;25.50;31.78
7168;BME280;3625;51.762;14.320;2023-05-22T12:05:22;100632.97;;;25.46;32.02
7168;BME280;3625;51.762;14.320;2023-05-22T12:07:50;100606.97;;;25.43;31.24
7168;BME280;3625;51.762;14.320;2023-05-22T12:10:20;100665.63;;;25.67;31.27
7168;BME280;3625;51.762;14.320;2023-05-22T12:12:49;100670.53;;;25.50;31.47
7168;BME280;3625;51.762;14.320;2023-05-22T12:15:18;100656.13;;;25.39;31.64
7168;BME280;3625;51.762;14.320;2023-05-22T12:17:47;100657.84;;;25.51;31.62
7168;BME280;3625;51.762;14.320;2023-05-22T12:20:16;100650.97;;;25.25;31.46
7168;BME280;3625;51.762;14.320;2023-05-22T12:22:44;100648.72;;;25.52;31.04
7168;BME280;3625;51.762;14.320;2023-05-22T12:25:14;100637.59;;;25.77;31.22
7168;BME280;3625;51.762;14.320;2023-05-22T12:27:45;100651.53;;;25.84;30.42
7168;BME280;3625;51.762;14.320;2023-05-22T12:30:15;100643.88;;;25.78;30.36
7168;BME280;3625;51.762;14.320;2023-05-22T12:32:49;100631.03;;;26.02;30.23
7168;BME280;3625;51.762;14.320;2023-05-22T12:35:18;100646.22;;;26.37;30.31
7168;BME280;3625;51.762;14.320;2023-05-22T12:37:50;100646.00;;;26.28;30.40
7168;BME280;3625;51.762;14.320;2023-05-22T12:40:20;100637.47;;;26.33;30.41
7168;BME280;3625;51.762;14.320;2023-05-22T12:42:51;100637.34;;;26.35;30.51
7168;BME280;3625;51.762;14.320;2023-05-22T12:45:19;100638.84;;;26.27;30.63
7168;BME280;3625;51.762;14.320;2023-05-22T12:47:48;100626.16;;;25.85;30.46
7168;BME280;3625;51.762;14.320;2023-05-22T12:50:17;100640.78;;;26.25;30.72
7168;BME280;3625;51.762;14.320;2023-05-22T12:52:45;100649.16;;;26.34;29.34
7168;BME280;3625;51.762;14.320;2023-05-22T12:55:14;100640.56;;;26.49;29.38
7168;BME280;3625;51.762;14.320;2023-05-22T12:57:42;100640.59;;;26.70;29.87
7168;BME280;3625;51.762;14.320;2023-05-22T13:00:13;100617.59;;;26.74;29.71
7168;BME280;3625;51.762;14.320;2023-05-22T13:02:42;100624.91;;;26.53;29.33
7168;BME280;3625;51.762;14.320;2023-05-22T13:05:11;100631.31;;;26.73;29.99
7168;BME280;3625;51.762;14.320;2023-05-22T13:07:39;100607.75;;;26.94;30.13
7168;BME280;3625;51.762;14.320;2023-05-22T13:10:08;100627.00;;;27.12;29.30
7168;BME280;3625;51.762;14.320;2023-05-22T13:12:37;100625.09;;;26.40;29.47
7168;BME280;3625;51.762;14.320;2023-05-22T13:15:07;100624.56;;;26.88;29.49
7168;BME280;3625;51.762;14.320;2023-05-22T13:17:39;100626.19;;;27.21;29.04
7168;BME280;3625;51.762;14.320;2023-05-22T13:20:09;100623.53;;;27.10;28.66
7168;BME280;3625;51.762;14.320;2023-05-22T13:22:38;100624.91;;;27.55;28.55
7168;BME280;3625;51.762;14.320;2023-05-22T13:25:08;100618.69;;;27.84;28.03